createdAt,value
2022-11-06T00:02:21.286Z,77.07
2022-11-06T00:04:47.936Z,76.95
2022-11-06T00:07:14.633Z,77.73
2022-11-06T00:09:41.114Z,78.13
2022-11-06T00:12:07.643Z,77.44
2022-11-06T00:14:35.270Z,77.59
2022-11-06T00:17:01.698Z,77.35
2022-11-06T00:19:28.197Z,78.32
2022-11-06T00:21:54.626Z,77.95
2022-11-06T00:24:21.063Z,78.06
2022-11-06T00:26:53.078Z,78.25
2022-11-06T00:29:20.716Z,77.37
2022-11-06T00:31:49.930Z,78.23
2022-11-06T00:34:16.424Z,77.55
2022-11-06T00:36:42.928Z,77.97
2022-11-06T00:39:11.210Z,77.28
2022-11-06T00:41:37.609Z,77.02
2022-11-06T00:44:04.270Z,77.00
2022-11-06T00:46:31.208Z,77.29
2022-11-06T00:48:57.952Z,77.70
2022-11-06T00:51:28.120Z,76.74
2022-11-06T00:53:59.948Z,77.15
2022-11-06T00:56:27.511Z,77.38
2022-11-06T00:58:55.208Z,77.04
2022-11-06T01:01:23.252Z,76.93
2022-11-06T01:04:12.407Z,77.32
2022-11-06T01:06:41.858Z,77.64
2022-11-06T01:09:10.699Z,76.81
2022-11-06T01:12:06.937Z,77.44
2022-11-06T01:14:26.891Z,77.95
2022-11-06T01:16:53.430Z,78.17
2022-11-06T01:19:21.323Z,78.09
2022-11-06T01:21:49.561Z,78.34
2022-11-06T01:24:23.405Z,77.77
2022-11-06T01:27:19.821Z,78.39
2022-11-06T01:29:37.335Z,78.50
2022-11-06T01:32:04.201Z,78.32
2022-11-06T01:34:30.745Z,78.23
2022-11-06T01:36:57.198Z,78.62
2022-11-06T01:39:23.634Z,77.28
2022-11-06T01:41:52.471Z,78.15
2022-11-06T01:44:40.774Z,78.02
2022-11-06T01:47:19.381Z,77.36
2022-11-06T01:49:46.342Z,78.02
2022-11-06T01:52:14.973Z,78.46
2022-11-06T01:54:46.404Z,78.91
2022-11-06T01:57:13.154Z,78.14
2022-11-06T01:59:45.662Z,78.72
2022-11-06T02:02:14.644Z,78.06
2022-11-06T02:04:44.497Z,78.12
2022-11-06T02:07:12.079Z,78.57
2022-11-06T02:09:39.042Z,78.09
2022-11-06T02:12:13.086Z,78.60
2022-11-06T02:15:01.620Z,78.62
2022-11-06T02:17:50.656Z,78.15
2022-11-06T02:20:31.982Z,77.93
2022-11-06T02:23:22.675Z,78.39
2022-11-06T02:26:18.501Z,79.13
2022-11-06T02:28:53.233Z,78.70
2022-11-06T02:31:26.872Z,78.40
2022-11-06T02:33:59.903Z,78.37
2022-11-06T02:36:32.635Z,78.71
2022-11-06T02:39:03.107Z,77.58
2022-11-06T02:41:33.483Z,78.28
2022-11-06T02:44:02.813Z,78.43
2022-11-06T02:46:36.144Z,78.72
2022-11-06T02:49:12.619Z,78.55
2022-11-06T02:51:43.990Z,78.07
2022-11-06T02:54:12.240Z,78.22
2022-11-06T02:56:44.514Z,78.11
2022-11-06T02:59:18.076Z,78.05
2022-11-06T03:02:14.807Z,77.49
2022-11-06T03:04:51.464Z,77.06
2022-11-06T03:07:31.180Z,77.83
2022-11-06T03:09:57.920Z,77.87
2022-11-06T03:12:34.235Z,77.42
2022-11-06T03:15:14.359Z,77.09
2022-11-06T03:17:59.745Z,77.43
2022-11-06T03:20:57.031Z,77.14
2022-11-06T03:23:31.035Z,77.06
2022-11-06T03:26:35.662Z,77.72
2022-11-06T03:29:26.347Z,77.04
2022-11-06T03:31:57.613Z,77.32
2022-11-06T03:34:32.559Z,77.82
2022-11-06T03:37:05.559Z,77.21
2022-11-06T03:39:37.184Z,77.51
2022-11-06T03:42:06.186Z,77.55
2022-11-06T03:44:37.440Z,77.63
2022-11-06T03:47:13.555Z,78.14
2022-11-06T03:49:46.721Z,77.73
2022-11-06T03:52:18.223Z,77.97
2022-11-06T03:54:57.748Z,77.82
2022-11-06T03:57:31.865Z,78.01
2022-11-06T04:00:01.238Z,77.97
2022-11-06T04:02:31.974Z,78.16
2022-11-06T04:05:08.814Z,77.73
2022-11-06T04:07:38.833Z,77.59
2022-11-06T04:10:47.733Z,77.41
2022-11-06T04:13:32.881Z,77.65
2022-11-06T04:15:59.606Z,77.87
2022-11-06T04:18:26.005Z,78.17
2022-11-06T04:21:27.693Z,78.18
2022-11-06T04:24:32.832Z,77.88
2022-11-06T04:27:17.900Z,77.63
2022-11-06T04:29:59.491Z,78.01
2022-11-06T04:32:54.495Z,77.43
2022-11-06T04:35:53.920Z,77.63
2022-11-06T04:38:33.757Z,77.73
2022-11-06T04:41:12.593Z,77.71
2022-11-06T04:43:50.610Z,77.43
2022-11-06T04:46:26.316Z,77.57
2022-11-06T04:48:53.707Z,77.62
2022-11-06T04:51:27.900Z,77.59
2022-11-06T04:53:55.158Z,77.27
2022-11-06T04:56:35.176Z,78.22
2022-11-06T04:59:04.797Z,78.49
2022-11-06T05:01:31.828Z,78.72
2022-11-06T05:03:58.601Z,78.39
2022-11-06T05:06:29.746Z,78.01
2022-11-06T05:08:58.166Z,77.90
2022-11-06T05:11:24.965Z,77.72
2022-11-06T05:13:51.397Z,76.82
2022-11-06T05:16:17.789Z,77.88
2022-11-06T05:18:44.218Z,77.77
2022-11-06T05:21:29.547Z,77.47
2022-11-06T05:23:55.945Z,77.96
2022-11-06T05:26:22.344Z,78.12
2022-11-06T05:28:49.326Z,78.23
2022-11-06T05:31:15.785Z,78.24
2022-11-06T05:33:42.179Z,78.57
2022-11-06T05:36:09.009Z,77.96
2022-11-06T05:38:35.460Z,77.98
2022-11-06T05:41:01.928Z,77.50
2022-11-06T05:43:28.382Z,77.81
2022-11-06T05:45:54.904Z,78.15
2022-11-06T05:48:21.343Z,78.19
2022-11-06T05:50:48.001Z,77.95
2022-11-06T05:53:14.443Z,77.71
2022-11-06T05:55:40.824Z,78.24
2022-11-06T05:58:07.275Z,77.81
2022-11-06T06:00:33.680Z,78.22
2022-11-06T06:03:01.934Z,78.46
2022-11-06T06:05:28.432Z,77.57
2022-11-06T06:07:54.862Z,77.82
2022-11-06T06:10:21.270Z,77.60
2022-11-06T06:12:50.263Z,77.99
2022-11-06T06:15:17.315Z,78.00
2022-11-06T06:17:45.305Z,78.19
2022-11-06T06:20:12.142Z,78.47
2022-11-06T06:22:38.586Z,78.61
2022-11-06T06:25:10.402Z,78.98
2022-11-06T06:27:41.281Z,78.63
2022-11-06T06:30:08.394Z,78.06
2022-11-06T06:32:34.806Z,78.61
2022-11-06T06:35:01.328Z,78.54
2022-11-06T06:37:27.738Z,78.51
2022-11-06T06:39:54.198Z,78.18
2022-11-06T06:42:20.645Z,78.14
2022-11-06T06:44:47.726Z,78.33
2022-11-06T06:47:16.817Z,78.57
2022-11-06T06:49:44.040Z,77.98
2022-11-06T06:52:10.988Z,78.17
2022-11-06T06:54:37.722Z,78.47
2022-11-06T06:57:04.718Z,78.82
2022-11-06T06:59:31.245Z,78.73
2022-11-06T07:01:57.886Z,78.49
2022-11-06T07:04:24.436Z,78.72
2022-11-06T07:06:54.113Z,78.51
2022-11-06T07:09:21.574Z,78.42
2022-11-06T07:11:48.019Z,78.35
2022-11-06T07:14:14.458Z,78.36
2022-11-06T07:16:41.132Z,78.26
2022-11-06T07:19:08.036Z,77.63
2022-11-06T07:21:34.444Z,78.61
2022-11-06T07:24:00.832Z,78.26
2022-11-06T07:26:27.248Z,78.67
2022-11-06T07:28:53.631Z,77.78
2022-11-06T07:31:20.011Z,78.36
2022-11-06T07:33:46.527Z,78.42
2022-11-06T07:36:13.966Z,77.38
2022-11-06T07:38:42.575Z,78.36
2022-11-06T07:41:12.477Z,77.54
2022-11-06T07:43:39.371Z,78.29
2022-11-06T07:46:07.969Z,78.61
2022-11-06T07:48:34.520Z,78.50
2022-11-06T07:51:06.525Z,78.44
2022-11-06T07:53:33.251Z,78.77
2022-11-06T07:56:00.147Z,78.57
2022-11-06T07:58:27.100Z,78.38
2022-11-06T08:00:55.830Z,78.12
2022-11-06T08:03:23.064Z,78.84
2022-11-06T08:05:49.740Z,78.41
2022-11-06T08:08:16.516Z,77.58
2022-11-06T08:10:47.675Z,78.92
2022-11-06T08:13:17.303Z,78.08
2022-11-06T08:15:44.561Z,77.87
2022-11-06T08:18:12.608Z,78.42
2022-11-06T08:20:39.982Z,77.66
2022-11-06T08:23:08.837Z,77.88
2022-11-06T08:25:35.321Z,77.52
2022-11-06T08:28:02.902Z,78.47
2022-11-06T08:30:30.501Z,78.47
2022-11-06T08:33:01.214Z,77.54
2022-11-06T08:35:27.624Z,76.68
2022-11-06T08:37:54.147Z,77.71
2022-11-06T08:40:20.878Z,77.56
2022-11-06T08:42:47.264Z,76.62
2022-11-06T08:45:13.692Z,77.95
2022-11-06T08:47:40.139Z,76.96
2022-11-06T08:50:07.187Z,77.38
2022-11-06T08:52:34.341Z,77.98
2022-11-06T08:55:00.919Z,76.24
2022-11-06T08:57:28.179Z,77.00
2022-11-06T08:59:54.581Z,77.35
2022-11-06T09:02:21.094Z,76.72
2022-11-06T09:04:47.540Z,77.96
2022-11-06T09:07:14.016Z,77.44
2022-11-06T09:09:40.441Z,76.28
2022-11-06T09:12:07.270Z,76.78
2022-11-06T09:14:34.414Z,77.97
2022-11-06T09:17:01.151Z,76.35
2022-11-06T09:19:27.543Z,77.63
2022-11-06T09:21:55.012Z,76.67
2022-11-06T09:24:43.175Z,77.23
2022-11-06T09:27:08.441Z,76.08
2022-11-06T09:29:34.920Z,76.38
2022-11-06T09:32:01.329Z,77.54
2022-11-06T09:34:27.718Z,77.05
2022-11-06T09:36:54.148Z,77.24
2022-11-06T09:39:20.541Z,77.92
2022-11-06T09:41:55.897Z,77.50
2022-11-06T09:44:57.271Z,78.06
2022-11-06T09:47:28.970Z,77.45
2022-11-06T09:49:56.505Z,77.48
2022-11-06T09:52:33.716Z,77.64
2022-11-06T09:55:09.480Z,76.46
2022-11-06T09:57:41.537Z,76.33
2022-11-06T10:00:12.787Z,77.80
2022-11-06T10:02:48.237Z,78.06
2022-11-06T10:05:23.756Z,76.71
2022-11-06T10:07:53.945Z,78.30
2022-11-06T10:10:27.870Z,77.16
2022-11-06T10:13:19.506Z,78.41
2022-11-06T10:16:04.087Z,78.60
2022-11-06T10:18:51.613Z,78.67
2022-11-06T10:21:48.477Z,77.97
2022-11-06T10:24:21.151Z,78.64
2022-11-06T10:26:57.921Z,76.55
2022-11-06T10:29:51.478Z,76.80
2022-11-06T10:32:43.233Z,77.46
2022-11-06T10:35:12.437Z,76.62
2022-11-06T10:37:50.993Z,76.72
2022-11-06T10:40:22.284Z,77.76
2022-11-06T10:42:59.717Z,78.56
2022-11-06T10:45:28.762Z,78.18
2022-11-06T10:48:06.766Z,78.12
2022-11-06T10:50:44.159Z,77.80
2022-11-06T10:53:34.636Z,76.54
2022-11-06T10:56:21.224Z,76.24
2022-11-06T10:58:47.954Z,76.43
2022-11-06T11:01:15.303Z,75.98
2022-11-06T11:03:43.692Z,76.23
2022-11-06T11:06:10.363Z,75.99
2022-11-06T11:08:40.255Z,74.78
2022-11-06T11:11:15.682Z,76.06
2022-11-06T11:13:46.225Z,76.13
2022-11-06T11:16:22.696Z,74.87
2022-11-06T11:18:50.465Z,74.66
2022-11-06T11:21:19.633Z,75.51
2022-11-06T11:24:04.071Z,74.93
2022-11-06T11:26:33.740Z,74.64
2022-11-06T11:29:03.488Z,76.29
2022-11-06T11:31:33.102Z,74.50
2022-11-06T11:34:05.051Z,76.07
2022-11-06T11:36:55.441Z,74.97
2022-11-06T11:39:26.188Z,75.19
2022-11-06T11:41:52.592Z,75.13
2022-11-06T11:44:20.518Z,74.18
2022-11-06T11:46:52.705Z,74.93
2022-11-06T11:49:26.527Z,74.23
2022-11-06T11:51:53.572Z,73.93
2022-11-06T11:54:23.514Z,74.11
2022-11-06T11:57:10.031Z,73.62
2022-11-06T12:00:00.139Z,73.34
2022-11-06T12:02:31.602Z,74.13
2022-11-06T12:05:16.728Z,73.17
2022-11-06T12:07:55.080Z,73.19
2022-11-06T12:10:35.349Z,73.74
2022-11-06T12:13:14.098Z,72.87
2022-11-06T12:15:44.543Z,73.13
2022-11-06T12:18:19.108Z,72.48
2022-11-06T12:20:54.789Z,73.69
2022-11-06T12:23:36.079Z,73.57
2022-11-06T12:26:31.852Z,72.82
2022-11-06T12:29:07.624Z,73.32
2022-11-06T12:31:43.087Z,72.56
2022-11-06T12:34:42.053Z,74.13
2022-11-06T12:37:18.605Z,72.74
2022-11-06T12:39:56.006Z,73.08
2022-11-06T12:42:28.043Z,72.62
2022-11-06T12:44:54.452Z,74.19
2022-11-06T12:47:50.667Z,74.22
2022-11-06T12:50:29.092Z,72.99
2022-11-06T12:53:06.048Z,73.71
2022-11-06T12:55:59.090Z,72.43
2022-11-06T12:58:47.704Z,73.92
2022-11-06T13:01:35.624Z,72.49
2022-11-06T13:04:09.577Z,72.28
2022-11-06T13:07:24.293Z,73.90
2022-11-06T13:09:56.494Z,72.22
2022-11-06T13:12:43.988Z,72.56
2022-11-06T13:15:25.621Z,72.56
2022-11-06T13:18:10.162Z,72.80
2022-11-06T13:20:47.843Z,72.84
2022-11-06T13:23:25.272Z,73.15
2022-11-06T13:26:13.020Z,71.95
2022-11-06T13:28:47.987Z,72.10
2022-11-06T13:31:19.357Z,73.20
2022-11-06T13:33:56.368Z,72.34
2022-11-06T13:36:24.428Z,72.34
2022-11-06T13:38:55.502Z,71.60
2022-11-06T13:41:26.328Z,72.34
2022-11-06T13:44:04.439Z,71.89
2022-11-06T13:46:48.332Z,73.03
2022-11-06T13:49:50.161Z,72.14
2022-11-06T13:52:38.250Z,71.59
2022-11-06T13:55:28.746Z,71.50
2022-11-06T13:58:14.287Z,72.27
2022-11-06T14:01:21.225Z,73.45
2022-11-06T14:03:56.919Z,72.23
2022-11-06T14:06:27.253Z,72.67
2022-11-06T14:08:58.415Z,72.06
2022-11-06T14:11:37.725Z,72.67
2022-11-06T14:14:12.309Z,72.36
2022-11-06T14:16:40.996Z,73.47
2022-11-06T14:19:13.545Z,72.32
2022-11-06T14:21:39.928Z,73.66
2022-11-06T14:24:07.278Z,73.09
2022-11-06T14:26:42.805Z,72.11
2022-11-06T14:29:42.053Z,72.88
2022-11-06T14:32:13.017Z,72.60
2022-11-06T14:34:41.750Z,72.85
2022-11-06T14:37:20.244Z,73.81
2022-11-06T14:39:52.877Z,72.29
2022-11-06T14:42:57.962Z,73.03
2022-11-06T14:45:24.395Z,72.96
2022-11-06T14:47:56.376Z,73.17
2022-11-06T14:50:48.549Z,73.47
2022-11-06T14:53:21.057Z,73.74
2022-11-06T14:56:01.399Z,73.05
2022-11-06T14:58:35.792Z,72.57
2022-11-06T15:01:14.639Z,73.61
2022-11-06T15:03:50.630Z,73.59
2022-11-06T15:06:17.013Z,73.85
2022-11-06T15:08:46.237Z,74.09
2022-11-06T15:11:31.930Z,74.44
2022-11-06T15:14:07.741Z,73.99
2022-11-06T15:17:00.194Z,73.62
2022-11-06T15:19:34.321Z,75.17
2022-11-06T15:22:12.912Z,73.17
2022-11-06T15:24:45.436Z,73.67
2022-11-06T15:27:27.271Z,74.79
2022-11-06T15:29:55.738Z,75.04
2022-11-06T15:32:25.683Z,73.71
2022-11-06T15:35:06.224Z,73.92
2022-11-06T15:37:41.633Z,73.90
2022-11-06T15:40:23.432Z,76.22
2022-11-06T15:42:49.799Z,74.32
2022-11-06T15:45:16.163Z,76.30
2022-11-06T15:47:59.121Z,75.79
2022-11-06T15:50:34.880Z,75.48
2022-11-06T15:53:13.752Z,75.66
2022-11-06T15:55:49.962Z,75.79
2022-11-06T15:58:16.507Z,76.67
2022-11-06T16:00:43.554Z,75.98
2022-11-06T16:03:15.027Z,77.04
2022-11-06T16:05:41.939Z,75.92
2022-11-06T16:08:14.350Z,77.50
2022-11-06T16:10:43.686Z,77.26
2022-11-06T16:13:13.895Z,75.82
2022-11-06T16:15:43.246Z,76.51
2022-11-06T16:18:32.179Z,75.65
2022-11-06T16:21:07.721Z,77.70
2022-11-06T16:23:40.384Z,77.48
2022-11-06T16:26:10.725Z,76.59
2022-11-06T16:28:43.548Z,75.45
2022-11-06T16:31:16.868Z,76.74
2022-11-06T16:33:58.610Z,75.97
2022-11-06T16:36:27.233Z,75.62
2022-11-06T16:38:54.750Z,75.80
2022-11-06T16:41:55.703Z,76.97
2022-11-06T16:44:30.832Z,77.71
2022-11-06T16:47:09.894Z,76.46
2022-11-06T16:49:38.619Z,77.38
2022-11-06T16:52:38.935Z,75.58
2022-11-06T16:55:16.639Z,76.00
2022-11-06T16:57:48.858Z,76.63
2022-11-06T17:00:21.020Z,75.59
2022-11-06T17:02:52.590Z,75.72
2022-11-06T17:05:22.405Z,75.44
2022-11-06T17:08:04.788Z,76.43
2022-11-06T17:10:34.361Z,77.06
2022-11-06T17:13:13.333Z,76.79
2022-11-06T17:15:41.330Z,76.13
2022-11-06T17:18:14.429Z,76.60
2022-11-06T17:20:43.063Z,77.63
2022-11-06T17:23:15.784Z,75.99
2022-11-06T17:25:44.934Z,77.42
2022-11-06T17:28:11.491Z,77.34
2022-11-06T17:30:37.997Z,76.22
2022-11-06T17:33:05.055Z,76.21
2022-11-06T17:35:31.481Z,76.03
2022-11-06T17:38:00.866Z,75.62
2022-11-06T17:40:29.895Z,77.25
2022-11-06T17:42:56.833Z,76.75
2022-11-06T17:45:23.764Z,76.30
2022-11-06T17:47:50.187Z,76.21
2022-11-06T17:50:16.678Z,76.65
2022-11-06T17:52:43.148Z,77.18
2022-11-06T17:55:09.654Z,76.58
2022-11-06T17:57:36.354Z,76.12
2022-11-06T18:00:03.803Z,77.07
2022-11-06T18:02:59.133Z,76.09
2022-11-06T18:05:18.463Z,76.65
2022-11-06T18:07:44.997Z,77.45
2022-11-06T18:10:11.561Z,77.32
2022-11-06T18:12:37.977Z,76.70
2022-11-06T18:15:05.132Z,77.46
2022-11-06T18:17:32.492Z,76.35
2022-11-06T18:19:58.927Z,75.97
2022-11-06T18:22:25.457Z,77.05
2022-11-06T18:24:51.896Z,70.53
2022-11-06T18:27:18.331Z,75.46
2022-11-06T18:29:44.885Z,74.88
2022-11-06T18:32:11.402Z,75.99
2022-11-06T18:34:37.882Z,74.95
2022-11-06T18:37:04.359Z,75.66
2022-11-06T18:39:30.787Z,75.91
2022-11-06T18:41:58.878Z,74.86
2022-11-06T18:44:25.368Z,75.50
2022-11-06T18:46:51.831Z,75.40
2022-11-06T18:49:18.231Z,76.50
2022-11-06T18:51:44.838Z,75.86
2022-11-06T18:54:12.529Z,74.71
2022-11-06T18:56:39.103Z,74.81
2022-11-06T18:59:07.618Z,75.59
2022-11-06T19:01:35.260Z,75.61
2022-11-06T19:04:03.645Z,75.62
2022-11-06T19:06:30.495Z,74.07
2022-11-06T19:08:56.987Z,73.83
2022-11-06T19:11:23.570Z,74.59
2022-11-06T19:13:50.050Z,75.14
2022-11-06T19:16:20.757Z,73.79
2022-11-06T19:21:28.917Z,74.25
2022-11-06T19:24:03.426Z,73.77
2022-11-06T19:26:32.345Z,74.07
2022-11-06T19:28:59.962Z,74.95
2022-11-06T19:31:29.120Z,73.82
2022-11-06T19:33:57.405Z,73.19
2022-11-06T19:36:25.239Z,73.73
2022-11-06T19:38:52.400Z,73.64
2022-11-06T19:41:19.283Z,73.93
2022-11-06T19:43:45.825Z,74.79
2022-11-06T19:46:12.276Z,72.53
2022-11-06T19:48:38.718Z,73.28
2022-11-06T19:51:10.611Z,74.66
2022-11-06T19:53:37.634Z,74.07
2022-11-06T19:56:08.542Z,74.63
2022-11-06T19:58:35.301Z,74.13
2022-11-06T20:01:13.156Z,72.67
2022-11-06T20:03:40.301Z,73.06
2022-11-06T20:06:08.194Z,72.54
2022-11-06T20:08:36.753Z,74.08
2022-11-06T20:11:08.775Z,72.80
2022-11-06T20:13:39.047Z,74.00
2022-11-06T20:16:07.437Z,74.76
2022-11-06T20:18:37.765Z,74.10
2022-11-06T20:21:07.331Z,73.36
2022-11-06T20:23:34.675Z,73.48
2022-11-06T20:26:01.125Z,74.79
2022-11-06T20:28:27.969Z,73.56
2022-11-06T20:30:54.762Z,73.91
2022-11-06T20:33:21.215Z,74.49
2022-11-06T20:35:47.726Z,74.80
2022-11-06T20:38:14.421Z,75.08
2022-11-06T20:40:42.214Z,74.00
2022-11-06T20:43:09.539Z,74.02
2022-11-06T20:45:37.321Z,74.51
2022-11-06T20:48:07.909Z,74.71
2022-11-06T20:50:34.657Z,73.83
2022-11-06T20:53:01.567Z,74.27
2022-11-06T20:55:29.023Z,74.86
2022-11-06T20:57:55.503Z,73.32
2022-11-06T21:00:22.543Z,73.30
2022-11-06T21:02:49.133Z,72.98
2022-11-06T21:05:15.867Z,73.60
2022-11-06T21:07:42.312Z,74.76
2022-11-06T21:10:10.914Z,73.74
2022-11-06T21:12:37.480Z,73.89
2022-11-06T21:15:04.315Z,74.00
2022-11-06T21:17:30.946Z,74.22
2022-11-06T21:19:57.383Z,74.24
2022-11-06T21:22:23.940Z,73.57
2022-11-06T21:24:50.391Z,73.70
2022-11-06T21:27:16.875Z,74.28
2022-11-06T21:29:43.337Z,74.38
2022-11-06T21:32:10.178Z,74.03
2022-11-06T21:34:36.928Z,73.91
2022-11-06T21:37:03.623Z,74.37
2022-11-06T21:39:34.717Z,74.12
2022-11-06T21:42:03.479Z,74.29
2022-11-06T21:44:30.209Z,73.66
2022-11-06T21:46:56.667Z,73.77
2022-11-06T21:49:23.098Z,73.51
2022-11-06T21:51:49.571Z,73.27
2022-11-06T21:54:34.502Z,73.31
2022-11-06T21:57:01.045Z,73.16
2022-11-06T21:59:29.200Z,73.78
2022-11-06T22:01:56.542Z,73.46
2022-11-06T22:04:23.381Z,74.30
2022-11-06T22:06:49.798Z,74.41
2022-11-06T22:09:19.530Z,73.94
2022-11-06T22:11:48.552Z,72.96
2022-11-06T22:14:16.874Z,73.48
2022-11-06T22:16:45.947Z,73.70
2022-11-06T22:19:13.624Z,74.68
2022-11-06T22:21:41.090Z,74.31
2022-11-06T22:24:08.520Z,73.18
2022-11-06T22:26:36.228Z,73.22
2022-11-06T22:29:07.108Z,72.86
2022-11-06T22:31:33.706Z,73.44
2022-11-06T22:34:00.271Z,74.26
2022-11-06T22:36:26.981Z,73.71
2022-11-06T22:38:53.515Z,74.75
2022-11-06T22:41:22.636Z,73.64
2022-11-06T22:43:49.651Z,73.43
2022-11-06T22:46:21.744Z,75.03
2022-11-06T22:48:49.330Z,74.23
2022-11-06T22:51:18.818Z,73.68
2022-11-06T22:53:45.355Z,74.61
2022-11-06T22:56:12.747Z,74.67
2022-11-06T22:58:40.913Z,74.55
2022-11-06T23:01:08.567Z,73.64
2022-11-06T23:03:35.516Z,73.59
2022-11-06T23:06:04.564Z,73.11
2022-11-06T23:08:31.053Z,74.87
2022-11-06T23:10:58.432Z,73.86
2022-11-06T23:13:25.225Z,74.55
2022-11-06T23:16:00.492Z,75.15
2022-11-06T23:18:26.895Z,74.46
2022-11-06T23:20:53.358Z,75.13
2022-11-06T23:23:19.796Z,74.40
2022-11-06T23:25:46.198Z,74.13
2022-11-06T23:28:12.620Z,73.57
2022-11-06T23:30:39.166Z,74.93
2022-11-06T23:33:05.619Z,74.71
2022-11-06T23:35:32.796Z,73.65
2022-11-06T23:37:59.685Z,74.51
2022-11-06T23:40:26.641Z,74.46
2022-11-06T23:42:56.019Z,74.60
2022-11-06T23:45:41.166Z,76.05
2022-11-06T23:48:12.929Z,75.49
2022-11-06T23:50:39.461Z,75.38
2022-11-06T23:53:05.929Z,74.28
2022-11-06T23:55:32.800Z,75.57
2022-11-06T23:57:59.503Z,74.79
